Time;durP1;ratioP1;P1;durP2;ratioP2;P2;SDS_P1;SDS_P2;PMS_P1;PMS_P2;Temp;Humidity;BMP_temperature;BMP_pressure;BME280_temperature;BME280_humidity;BME280_pressure;Samples;Min_cycle;Max_cycle;Signal;HPM_P1;HPM_P2
2023/10/17 00:01:44;;;;;;;3.63;2.30;;;15.10;64.20;;;;;;6210613;23;20502;-80
2023/10/17 00:04:32;;;;;;;3.70;2.17;;;15.00;64.20;;;;;;6214517;23;20001;-79
2023/10/17 00:07:02;;;;;;;2.50;1.63;;;15.00;63.90;;;;;;6214095;23;20005;-79
2023/10/17 00:09:29;;;;;;;3.55;2.20;;;15.10;63.80;;;;;;6214783;23;20004;-79
2023/10/17 00:14:27;;;;;;;11.57;2.92;;;15.10;63.50;;;;;;6216022;23;20009;-79
2023/10/17 00:16:55;;;;;;;4.55;2.42;;;15.00;63.20;;;;;;6214390;23;20076;-79
2023/10/17 00:19:32;;;;;;;3.90;2.20;;;15.00;63.30;;;;;;6214079;23;20479;-79
2023/10/17 00:21:59;;;;;;;4.30;1.65;;;15.00;63.30;;;;;;6214241;23;20007;-79
2023/10/17 00:24:25;;;;;;;3.28;1.80;;;14.90;63.20;;;;;;6213825;23;20005;-81
2023/10/17 00:26:51;;;;;;;3.30;1.90;;;14.90;63.20;;;;;;6213034;23;20058;-76
2023/10/17 00:29:16;;;;;;;4.43;2.30;;;14.90;63.30;;;;;;6213917;23;20087;-77
2023/10/17 00:31:44;;;;;;;2.92;1.50;;;14.90;63.40;;;;;;6214144;23;20068;-77
2023/10/17 00:34:16;;;;;;;2.67;1.88;;;15.00;63.20;;;;;;6214383;23;20007;-77
2023/10/17 00:39:36;;;;;;;2.40;1.38;;;15.00;63.20;;;;;;6214570;23;20016;-79
2023/10/17 00:44:36;;;;;;;2.92;1.20;;;14.90;63.50;;;;;;6216857;23;20020;-76
2023/10/17 00:47:03;;;;;;;2.20;1.50;;;14.90;63.50;;;;;;6213933;23;20427;-77
2023/10/17 00:49:33;;;;;;;2.80;1.30;;;14.90;63.70;;;;;;6216488;23;20000;-77
2023/10/17 00:52:00;;;;;;;;;;;14.90;63.60;;;;;;6216496;23;20000;-77
2023/10/17 00:54:26;;;;;;;3.20;1.17;;;14.90;63.60;;;;;;6189210;23;20270;-77
2023/10/17 00:56:56;;;;;;;2.33;1.40;;;14.80;63.50;;;;;;6214719;23;20004;-76
2023/10/17 00:59:31;;;;;;;2.58;1.20;;;14.80;63.60;;;;;;6189849;23;20362;-77
2023/10/17 01:02:06;;;;;;;2.75;1.45;;;14.70;63.80;;;;;;6215436;23;20374;-78
2023/10/17 01:04:33;;;;;;;1.75;1.15;;;14.70;63.80;;;;;;6215700;23;20008;-79
2023/10/17 01:07:05;;;;;;;2.08;1.33;;;14.70;64.00;;;;;;6216420;23;20008;-78
2023/10/17 01:09:34;;;;;;;1.70;0.85;;;14.60;63.90;;;;;;6216075;23;20001;-77
2023/10/17 01:12:01;;;;;;;2.33;1.30;;;14.60;64.00;;;;;;6216031;23;20330;-78
2023/10/17 01:14:30;;;;;;;1.50;0.98;;;14.60;64.00;;;;;;6216330;23;20419;-79
2023/10/17 01:16:57;;;;;;;3.28;1.63;;;14.60;64.00;;;;;;6215862;23;20024;-79
2023/10/17 01:19:23;;;;;;;2.85;1.10;;;14.50;64.00;;;;;;6215925;23;20007;-79
2023/10/17 01:21:49;;;;;;;2.83;1.35;;;14.50;64.20;;;;;;6215832;23;20084;-77
2023/10/17 01:24:16;;;;;;;2.33;1.20;;;14.40;64.20;;;;;;6215912;23;20028;-76
2023/10/17 01:26:46;;;;;;;2.13;1.20;;;14.40;64.40;;;;;;6215303;23;20009;-76
2023/10/17 01:29:12;;;;;;;3.10;1.55;;;14.30;64.50;;;;;;6215914;23;20008;-76
2023/10/17 01:31:42;;;;;;;1.63;1.10;;;14.30;64.70;;;;;;6216025;23;20433;-76
2023/10/17 01:34:08;;;;;;;;;;;14.30;64.70;;;;;;6216870;23;20001;-76
2023/10/17 01:36:40;;;;;;;2.95;1.33;;;14.30;64.90;;;;;;6215383;23;20341;-78
2023/10/17 01:39:08;;;;;;;1.63;1.15;;;14.30;65.10;;;;;;6215308;23;20489;-76
2023/10/17 01:41:34;;;;;;;2.25;1.00;;;14.30;65.00;;;;;;6215422;23;19997;-76
2023/10/17 01:44:01;;;;;;;2.60;1.17;;;14.30;64.60;;;;;;6215512;23;20020;-76
2023/10/17 01:46:29;;;;;;;2.67;1.27;;;14.30;64.60;;;;;;6215992;23;20000;-77
2023/10/17 01:49:00;;;;;;;1.50;1.00;;;14.30;64.70;;;;;;6216339;23;20027;-76
2023/10/17 01:51:27;;;;;;;2.92;1.13;;;14.30;64.60;;;;;;6215765;23;20007;-76
2023/10/17 01:53:53;;;;;;;3.67;1.20;;;14.30;64.80;;;;;;6216221;23;20080;-76
2023/10/17 01:56:26;;;;;;;1.42;0.80;;;14.30;64.70;;;;;;6215050;23;20367;-76
2023/10/17 01:58:55;;;;;;;1.77;1.00;;;14.30;64.50;;;;;;6188335;23;20009;-77
2023/10/17 02:01:25;;;;;;;2.13;1.17;;;14.30;64.50;;;;;;6189435;23;20059;-77
2023/10/17 02:03:52;;;;;;;2.60;0.90;;;14.20;65.10;;;;;;6215409;23;20011;-78
2023/10/17 02:06:19;;;;;;;2.83;1.20;;;14.20;64.80;;;;;;6214969;23;20047;-78
2023/10/17 02:08:46;;;;;;;1.85;1.00;;;14.10;65.50;;;;;;6215511;23;20004;-78
2023/10/17 02:11:18;;;;;;;2.05;0.90;;;14.10;65.20;;;;;;6215748;23;20355;-76
2023/10/17 02:13:45;;;;;;;3.53;1.40;;;14.10;65.40;;;;;;6189514;23;20000;-75
2023/10/17 02:16:12;;;;;;;2.88;1.13;;;14.00;65.40;;;;;;6215390;23;20008;-75
2023/10/17 02:18:38;;;;;;;2.22;1.10;;;14.00;65.50;;;;;;6215691;23;20396;-76
2023/10/17 02:21:04;;;;;;;2.40;1.08;;;13.90;65.90;;;;;;6213023;23;20497;-76
2023/10/17 02:23:39;;;;;;;1.92;1.10;;;13.90;65.90;;;;;;6215390;23;20415;-76
2023/10/17 02:26:10;;;;;;;2.22;1.10;;;13.80;66.00;;;;;;6215256;23;20107;-77
2023/10/17 02:28:44;;;;;;;2.67;1.00;;;13.80;66.10;;;;;;6214795;23;20378;-77
2023/10/17 02:31:15;;;;;;;2.80;1.33;;;13.80;66.10;;;;;;6215008;23;19997;-76
2023/10/17 02:33:44;;;;;;;2.15;1.23;;;13.90;66.40;;;;;;6215418;23;20023;-77
2023/10/17 02:36:13;;;;;;;1.60;0.98;;;13.90;66.10;;;;;;6215791;23;20001;-76
2023/10/17 02:38:43;;;;;;;2.17;1.00;;;13.90;66.00;;;;;;6215426;23;20004;-77
2023/10/17 02:41:28;;;;;;;2.30;1.17;;;13.90;66.00;;;;;;6215434;23;20028;-76
2023/10/17 02:43:54;;;;;;;2.30;1.27;;;13.90;66.20;;;;;;6215493;23;20087;-77
2023/10/17 02:46:27;;;;;;;2.13;1.30;;;13.90;66.40;;;;;;6215108;23;20001;-77
2023/10/17 02:48:54;;;;;;;4.47;1.30;;;13.90;66.50;;;;;;6214978;23;20012;-78
2023/10/17 02:53:53;;;;;;;5.03;1.30;;;13.80;66.60;;;;;;6217704;23;20008;-78
2023/10/17 02:56:19;;;;;;;;;;;13.80;66.80;;;;;;6215996;23;20007;-78
2023/10/17 02:59:06;;;;;;;2.38;1.48;;;13.70;67.00;;;;;;6188999;23;19904;-78
2023/10/17 03:01:37;;;;;;;4.10;1.10;;;13.70;67.20;;;;;;6215664;23;20000;-78
2023/10/17 03:04:09;;;;;;;;;;;13.70;67.20;;;;;;6216024;23;20011;-78
2023/10/17 03:06:40;;;;;;;1.65;1.00;;;13.60;67.20;;;;;;6216064;23;19899;-78
2023/10/17 03:09:19;;;;;;;2.60;0.85;;;13.60;67.40;;;;;;6216113;23;20000;-77
2023/10/17 03:12:06;;;;;;;2.17;1.00;;;13.60;67.30;;;;;;6213386;23;20001;-77
2023/10/17 03:17:08;;;;;;;3.15;1.30;;;13.50;67.50;;;;;;6217139;23;20019;-77
2023/10/17 03:19:35;;;;;;;3.53;1.33;;;13.50;67.60;;;;;;6216586;23;20004;-77
2023/10/17 03:24:47;;;;;;;2.67;1.05;;;13.40;67.80;;;;;;6214581;23;20015;-77
2023/10/17 03:27:24;;;;;;;2.40;1.08;;;13.40;68.00;;;;;;6214798;23;20016;-79
2023/10/17 03:29:51;;;;;;;2.50;1.10;;;13.40;68.10;;;;;;6213768;23;20000;-77
2023/10/17 03:32:17;;;;;;;3.25;0.80;;;13.40;68.10;;;;;;6214591;23;20082;-77
2023/10/17 03:34:45;;;;;;;2.15;1.00;;;13.50;68.70;;;;;;6213073;23;20001;-76
2023/10/17 03:39:55;;;;;;;2.65;1.40;;;13.60;68.10;;;;;;6217248;23;20346;-77
2023/10/17 03:44:57;;;;;;;2.03;1.10;;;13.60;68.20;;;;;;6217147;23;20022;-79
2023/10/17 03:47:23;;;;;;;2.72;0.90;;;13.50;68.20;;;;;;6214060;23;20013;-80
2023/10/17 03:49:49;;;;;;;1.67;0.93;;;13.50;68.00;;;;;;6214139;23;20000;-80
2023/10/17 03:52:16;;;;;;;1.95;1.05;;;13.60;68.00;;;;;;6214373;23;19996;-78
2023/10/17 03:54:44;;;;;;;2.60;1.23;;;13.60;68.00;;;;;;6214453;23;20001;-77
2023/10/17 03:57:16;;;;;;;2.65;1.20;;;13.60;68.10;;;;;;6214401;23;20005;-77
2023/10/17 03:59:51;;;;;;;2.17;1.17;;;13.60;68.20;;;;;;6214291;23;20023;-77
2023/10/17 04:02:20;;;;;;;1.55;0.82;;;13.50;68.20;;;;;;6214355;23;20001;-77
2023/10/17 04:04:53;;;;;;;1.58;1.08;;;13.50;68.40;;;;;;6213785;23;20004;-76
2023/10/17 04:07:23;;;;;;;0.93;0.75;;;13.50;68.60;;;;;;6215266;23;20012;-78
2023/10/17 04:12:48;;;;;;;1.80;1.02;;;13.40;68.80;;;;;;6215870;23;20255;-79
2023/10/17 04:15:15;;;;;;;1.30;0.80;;;13.40;68.70;;;;;;6214568;23;20585;-79
2023/10/17 04:17:41;;;;;;;1.42;0.80;;;13.40;68.90;;;;;;6214828;23;20032;-79
2023/10/17 04:20:13;;;;;;;1.77;1.13;;;13.30;68.80;;;;;;6214147;23;20004;-79
2023/10/17 04:22:39;;;;;;;1.95;1.00;;;13.40;69.00;;;;;;6214362;23;20073;-79
2023/10/17 04:25:33;;;;;;;1.55;1.02;;;13.30;69.20;;;;;;6216002;23;20011;-79
2023/10/17 04:27:59;;;;;;;2.28;1.15;;;13.30;69.40;;;;;;6216209;23;20009;-79
2023/10/17 04:30:46;;;;;;;4.50;1.38;;;13.40;69.40;;;;;;6216517;23;20000;-79
2023/10/17 04:33:12;;;;;;;2.05;1.05;;;13.30;69.30;;;;;;6216034;23;20031;-78
2023/10/17 04:35:47;;;;;;;2.42;1.38;;;13.30;69.30;;;;;;6189020;23;20001;-79
2023/10/17 04:38:26;;;;;;;1.73;0.90;;;13.30;69.40;;;;;;6215712;23;20008;-80
2023/10/17 04:43:45;;;;;;;1.55;1.08;;;13.30;69.40;;;;;;6217413;23;20020;-77
2023/10/17 04:46:11;;;;;;;1.55;1.15;;;13.30;69.30;;;;;;6215617;23;20001;-77
2023/10/17 04:48:40;;;;;;;2.17;1.10;;;13.30;69.40;;;;;;6215479;23;20001;-78
2023/10/17 04:53:48;;;;;;;2.58;1.13;;;13.20;69.60;;;;;;6218743;23;20462;-80
2023/10/17 04:56:21;;;;;;;2.00;1.27;;;13.30;69.90;;;;;;6216374;23;20027;-80
2023/10/17 05:04:19;;;;;;;3.30;1.10;;;13.30;69.80;;;;;;6216742;23;20453;-77
2023/10/17 06:17:48;;;;;;;6.53;1.27;;;13.20;71.40;;;;;;6216110;23;20143;-84
2023/10/17 06:20:16;;;;;;;2.33;1.00;;;13.20;71.20;;;;;;6189074;23;20020;-83
2023/10/17 06:31:10;;;;;;;1.55;0.82;;;13.30;70.70;;;;;;6216353;23;20008;-85
2023/10/17 06:33:35;;;;;;;4.22;1.42;;;13.30;70.80;;;;;;6213278;23;20012;-83
2023/10/17 06:36:13;;;;;;;1.90;0.93;;;13.30;70.80;;;;;;6186486;23;20092;-82
2023/10/17 06:38:46;;;;;;;3.13;1.15;;;13.40;70.90;;;;;;6212862;23;20055;-81
2023/10/17 06:41:38;;;;;;;2.22;0.93;;;13.40;70.80;;;;;;6214344;23;20308;-82
2023/10/17 06:44:09;;;;;;;1.30;1.15;;;13.50;70.90;;;;;;6214536;23;20004;-82
2023/10/17 06:46:48;;;;;;;2.25;1.23;;;13.50;70.80;;;;;;6214957;23;20005;-81
2023/10/17 06:50:20;;;;;;;1.65;1.00;;;13.60;70.50;;;;;;6215652;23;20019;-82
2023/10/17 06:54:49;;;;;;;1.38;0.90;;;13.60;70.40;;;;;;6217002;23;20031;-82
2023/10/17 06:57:23;;;;;;;1.73;0.90;;;13.70;70.30;;;;;;6214015;23;20300;-76
2023/10/17 07:00:15;;;;;;;2.05;1.00;;;13.70;70.40;;;;;;6214793;23;20084;-77
2023/10/17 07:02:43;;;;;;;2.35;1.25;;;13.70;70.20;;;;;;6212880;23;20009;-77
2023/10/17 07:05:09;;;;;;;1.25;0.80;;;13.80;70.10;;;;;;6214221;23;20055;-76
2023/10/17 07:07:45;;;;;;;1.60;1.00;;;13.80;70.20;;;;;;6214756;23;20137;-81
2023/10/17 07:10:24;;;;;;;1.60;0.95;;;13.90;70.00;;;;;;6211459;23;20103;-83
2023/10/17 07:13:27;;;;;;;1.50;0.93;;;14.00;69.80;;;;;;6210648;23;20007;-81
2023/10/17 07:15:54;;;;;;;3.42;1.25;;;14.00;69.40;;;;;;6212165;23;20004;-79
2023/10/17 07:23:48;;;;;;;3.45;1.25;;;14.20;68.90;;;;;;6211853;23;20019;-82
2023/10/17 07:26:17;;;;;;;1.98;0.93;;;14.30;68.80;;;;;;6214761;23;20019;-82
2023/10/17 07:28:44;;;;;;;2.63;1.20;;;14.30;68.50;;;;;;6214064;23;20013;-82
2023/10/17 07:31:13;;;;;;;1.70;1.10;;;14.40;68.60;;;;;;6214673;23;20000;-75
2023/10/17 07:33:46;;;;;;;3.35;0.95;;;14.50;68.60;;;;;;6212876;23;20005;-75
2023/10/17 07:36:18;;;;;;;2.22;0.90;;;14.60;69.10;;;;;;6187889;23;20008;-75
2023/10/17 07:38:44;;;;;;;2.20;1.25;;;14.60;68.50;;;;;;6213615;23;20004;-75
2023/10/17 07:41:13;;;;;;;1.45;0.80;;;14.70;68.30;;;;;;6214435;23;20027;-75
2023/10/17 07:43:46;;;;;;;2.78;1.20;;;14.80;68.10;;;;;;6214269;23;20008;-77
2023/10/17 07:46:26;;;;;;;2.92;0.90;;;14.90;68.50;;;;;;6214543;23;20015;-77
2023/10/17 07:48:52;;;;;;;4.03;1.05;;;15.00;68.00;;;;;;6213963;23;20011;-77
2023/10/17 07:51:18;;;;;;;1.30;0.90;;;15.20;67.80;;;;;;6214865;23;20020;-77
2023/10/17 07:53:47;;;;;;;1.55;0.90;;;15.30;67.50;;;;;;6213504;23;20004;-77
2023/10/17 07:56:21;;;;;;;1.38;0.60;;;15.40;67.30;;;;;;6215322;23;20096;-76
2023/10/17 07:58:56;;;;;;;2.65;0.95;;;15.50;67.40;;;;;;6216880;23;20005;-77
2023/10/17 08:01:31;;;;;;;1.33;0.85;;;15.60;67.10;;;;;;6218042;23;20000;-77
2023/10/17 08:03:59;;;;;;;1.00;0.70;;;15.70;66.60;;;;;;6218307;23;20005;-77
2023/10/17 08:06:29;;;;;;;1.38;0.90;;;15.80;65.80;;;;;;6218833;23;20026;-77
2023/10/17 08:08:56;;;;;;;2.38;0.93;;;15.90;66.60;;;;;;6218764;23;20012;-80
2023/10/17 08:11:28;;;;;;;2.50;0.80;;;16.10;66.60;;;;;;6216926;23;20008;-79
2023/10/17 08:13:55;;;;;;;2.63;0.95;;;16.20;65.10;;;;;;6218199;23;20055;-78
2023/10/17 08:16:26;;;;;;;1.65;0.70;;;16.20;64.10;;;;;;6217918;23;20030;-79
2023/10/17 08:18:58;;;;;;;2.05;0.98;;;16.20;63.90;;;;;;6218444;23;20365;-78
2023/10/17 08:21:34;;;;;;;2.38;1.05;;;16.20;63.60;;;;;;6216868;23;20040;-79
2023/10/17 08:24:00;;;;;;;1.17;0.70;;;16.40;63.80;;;;;;6216866;23;20537;-80
2023/10/17 08:26:29;;;;;;;2.47;1.05;;;16.50;64.50;;;;;;6219146;23;20005;-77
2023/10/17 08:28:56;;;;;;;1.35;0.90;;;16.70;65.00;;;;;;6217408;23;20016;-79
2023/10/17 08:31:23;;;;;;;2.13;1.27;;;16.90;63.80;;;;;;6217127;23;20008;-78
2023/10/17 08:34:08;;;;;;;1.40;0.80;;;17.00;63.60;;;;;;6218434;23;20072;-77
2023/10/17 08:36:42;;;;;;;1.08;0.80;;;17.10;63.80;;;;;;6218773;23;20289;-78
2023/10/17 08:39:56;;;;;;;2.53;0.70;;;17.30;62.50;;;;;;6213836;23;20032;-77
2023/10/17 08:42:05;;;;;;;2.17;0.95;;;17.40;62.40;;;;;;6201401;23;20063;-77
2023/10/17 08:44:35;;;;;;;3.55;1.20;;;17.50;61.30;;;;;;6217735;23;20009;-78
2023/10/17 08:47:01;;;;;;;2.00;1.10;;;17.50;60.50;;;;;;6217791;23;20012;-78
2023/10/17 08:49:27;;;;;;;1.45;0.80;;;17.60;60.50;;;;;;6217689;23;20000;-79
2023/10/17 08:51:56;;;;;;;1.10;0.63;;;17.60;60.80;;;;;;6217680;23;20058;-78
2023/10/17 08:54:28;;;;;;;1.17;0.52;;;17.70;60.30;;;;;;6217148;23;20001;-77
2023/10/17 08:56:55;;;;;;;1.30;0.77;;;17.80;58.20;;;;;;6215123;23;20066;-76
2023/10/17 09:02:28;;;;;;;1.80;0.60;;;18.00;59.40;;;;;;6218259;23;20316;-82
2023/10/17 09:05:26;;;;;;;1.33;0.63;;;18.10;59.50;;;;;;6216625;23;20004;-81
2023/10/17 09:08:01;;;;;;;2.42;0.80;;;18.30;59.00;;;;;;6217403;23;20000;-81
2023/10/17 09:10:38;;;;;;;2.35;0.60;;;18.40;58.50;;;;;;6214779;23;20423;-75
2023/10/17 09:15:55;;;;;;;2.08;0.77;;;18.60;58.60;;;;;;6215505;23;20327;-75
2023/10/17 09:18:27;;;;;;;0.98;0.70;;;18.70;58.10;;;;;;6215498;23;20008;-75
2023/10/17 09:20:54;;;;;;;0.82;0.50;;;18.90;57.80;;;;;;6215481;23;20008;-80
2023/10/17 09:23:25;;;;;;;2.88;0.73;;;18.90;56.80;;;;;;6216196;23;20047;-80
2023/10/17 09:25:58;;;;;;;3.47;0.77;;;19.00;57.70;;;;;;6215782;23;20378;-81
2023/10/17 09:28:28;;;;;;;2.03;0.80;;;19.20;57.70;;;;;;6215206;23;20016;-81
2023/10/17 09:31:03;;;;;;;1.48;0.60;;;19.30;56.30;;;;;;6213640;23;20339;-80
2023/10/17 09:33:30;;;;;;;2.70;0.60;;;19.40;56.50;;;;;;6216752;23;20007;-80
2023/10/17 09:36:00;;;;;;;1.50;0.70;;;19.60;56.60;;;;;;6215313;23;20001;-80
2023/10/17 09:38:29;;;;;;;1.48;0.55;;;19.70;56.40;;;;;;6189744;23;20355;-80
2023/10/17 09:40:59;;;;;;;0.90;0.73;;;19.80;55.80;;;;;;6215427;23;20008;-80
2023/10/17 09:43:25;;;;;;;3.03;0.63;;;19.90;55.40;;;;;;6216227;23;20273;-80
2023/10/17 09:45:52;;;;;;;1.77;0.60;;;20.00;53.20;;;;;;6216456;23;20005;-80
2023/10/17 09:48:27;;;;;;;1.88;0.80;;;20.10;54.90;;;;;;6216387;23;20005;-80
2023/10/17 09:50:58;;;;;;;0.82;0.60;;;20.20;54.80;;;;;;6215114;23;20382;-80
2023/10/17 09:53:30;;;;;;;2.17;0.68;;;20.40;54.70;;;;;;6216388;23;20001;-80
2023/10/17 09:56:00;;;;;;;1.33;0.70;;;20.60;54.30;;;;;;6216314;23;20005;-80
2023/10/17 09:58:32;;;;;;;1.33;0.77;;;20.70;51.60;;;;;;6216169;23;20084;-80
2023/10/17 10:01:04;;;;;;;2.38;1.08;;;20.70;52.90;;;;;;6215757;23;20008;-80
2023/10/17 10:03:31;;;;;;;2.28;0.70;;;20.70;52.90;;;;;;6215790;23;20055;-80
2023/10/17 10:06:27;;;;;;;1.13;0.85;;;20.80;52.50;;;;;;6214522;23;20005;-80
2023/10/17 10:08:54;;;;;;;2.20;0.73;;;21.00;51.90;;;;;;6216136;23;20000;-81
2023/10/17 10:11:20;;;;;;;1.40;0.80;;;21.10;51.80;;;;;;6215932;23;19996;-80
2023/10/17 10:14:03;;;;;;;1.02;0.68;;;21.20;50.20;;;;;;6215730;23;20004;-80
2023/10/17 10:17:00;;;;;;;2.13;0.88;;;21.20;50.90;;;;;;6215786;23;20004;-80
2023/10/17 10:19:49;;;;;;;1.92;0.55;;;21.10;50.50;;;;;;6216225;23;20001;-81
2023/10/17 10:22:16;;;;;;;0.65;0.55;;;21.00;49.20;;;;;;6179952;23;20411;-80
2023/10/17 10:24:45;;;;;;;1.48;0.80;;;20.90;50.80;;;;;;6215893;23;20004;-80
2023/10/17 10:27:11;;;;;;;1.10;0.60;;;21.00;51.50;;;;;;6215629;23;20008;-80
2023/10/17 10:29:37;;;;;;;1.42;0.70;;;21.10;51.30;;;;;;6215782;23;20008;-80
2023/10/17 10:32:06;;;;;;;1.58;0.90;;;21.10;50.60;;;;;;6215906;23;20075;-80
2023/10/17 10:34:36;;;;;;;1.02;0.50;;;21.10;50.60;;;;;;6215776;23;19997;-80
2023/10/17 10:37:09;;;;;;;1.20;0.80;;;21.10;50.60;;;;;;6215775;23;20415;-80
2023/10/17 10:39:37;;;;;;;1.13;0.70;;;21.20;50.50;;;;;;6189173;23;20307;-80
2023/10/17 10:42:07;;;;;;;0.80;0.57;;;21.40;50.30;;;;;;6215914;23;20055;-80
2023/10/17 10:44:42;;;;;;;0.70;0.60;;;21.60;50.50;;;;;;6214697;23;20378;-81
2023/10/17 10:47:09;;;;;;;0.80;0.60;;;21.60;50.00;;;;;;6215095;23;20430;-80
2023/10/17 10:49:34;;;;;;;8.35;0.77;;;21.70;49.80;;;;;;6213388;23;20339;-80
2023/10/17 10:52:00;;;;;;;0.88;0.50;;;21.80;49.40;;;;;;6215475;23;20423;-83
2023/10/17 10:54:50;;;;;;;1.52;0.65;;;21.90;49.40;;;;;;6216237;23;20047;-83
2023/10/17 10:57:29;;;;;;;1.13;0.80;;;22.10;49.80;;;;;;6206635;23;20005;-83
2023/10/17 10:59:55;;;;;;;2.35;0.68;;;22.30;49.30;;;;;;6216012;23;20032;-84
2023/10/17 11:02:21;;;;;;;0.95;0.50;;;22.40;48.80;;;;;;6216556;23;20004;-83
2023/10/17 11:04:47;;;;;;;1.42;0.50;;;22.40;49.00;;;;;;6217055;23;20534;-83
2023/10/17 11:07:23;;;;;;;1.02;0.55;;;22.40;49.20;;;;;;6215818;23;20005;-84
2023/10/17 11:10:10;;;;;;;1.65;0.60;;;22.50;48.50;;;;;;6215874;23;20001;-83
2023/10/17 11:12:37;;;;;;;1.92;0.70;;;22.50;48.80;;;;;;6216176;23;20489;-83
2023/10/17 11:15:18;;;;;;;2.55;0.50;;;22.60;48.10;;;;;;6215996;23;19997;-83
2023/10/17 11:17:45;;;;;;;2.28;0.60;;;22.70;47.70;;;;;;6216069;23;20382;-83
2023/10/17 11:20:14;;;;;;;1.17;0.70;;;22.80;47.70;;;;;;6216312;23;20123;-83
2023/10/17 11:22:44;;;;;;;1.00;0.50;;;22.90;47.80;;;;;;6216581;23;20008;-83
2023/10/17 11:25:27;;;;;;;3.42;0.85;;;23.00;48.00;;;;;;6216234;23;20032;-84
2023/10/17 11:27:55;;;;;;;1.65;0.80;;;23.60;47.50;;;;;;6216097;23;20009;-83
2023/10/17 11:30:32;;;;;;;2.30;1.08;;;24.40;45.80;;;;;;6214139;23;20446;-83
2023/10/17 11:33:05;;;;;;;1.63;0.80;;;24.90;44.50;;;;;;6215826;23;20077;-84
2023/10/17 11:35:37;;;;;;;2.53;0.82;;;25.20;44.50;;;;;;6214797;23;20004;-83
2023/10/17 11:38:03;;;;;;;1.48;0.82;;;25.40;44.20;;;;;;6216040;23;20055;-83
2023/10/17 11:40:30;;;;;;;2.40;0.80;;;25.80;44.00;;;;;;6216039;23;20035;-83
2023/10/17 11:42:59;;;;;;;1.48;0.70;;;26.10;43.40;;;;;;6216127;23;20083;-84
2023/10/17 11:45:33;;;;;;;1.38;0.55;;;26.50;43.00;;;;;;6214943;23;20008;-84
2023/10/17 11:48:14;;;;;;;3.10;1.20;;;26.80;42.40;;;;;;6214998;23;20000;-82
2023/10/17 11:50:40;;;;;;;1.58;0.85;;;27.00;42.00;;;;;;6215643;23;20001;-83
2023/10/17 11:53:09;;;;;;;1.30;0.73;;;27.30;40.90;;;;;;6216068;23;20071;-83
2023/10/17 11:55:45;;;;;;;1.27;1.00;;;27.40;41.50;;;;;;6216288;23;20328;-84
2023/10/17 12:00:52;;;;;;;1.10;0.68;;;27.30;40.90;;;;;;6213487;23;20095;-78
2023/10/17 12:03:20;;;;;;;1.65;0.93;;;27.30;41.00;;;;;;6215657;23;20039;-77
2023/10/17 12:05:47;;;;;;;1.38;0.82;;;27.30;40.40;;;;;;6214844;23;20027;-78
2023/10/17 12:08:22;;;;;;;1.48;0.70;;;27.10;41.10;;;;;;6188335;23;20342;-78
2023/10/17 12:10:53;;;;;;;2.17;0.65;;;26.90;40.50;;;;;;6214882;23;20000;-77
2023/10/17 12:13:19;;;;;;;2.67;0.82;;;26.80;40.50;;;;;;6214949;23;20001;-78
2023/10/17 12:15:45;;;;;;;3.13;1.08;;;26.70;41.10;;;;;;6214600;23;20380;-77
2023/10/17 12:18:12;;;;;;;2.83;0.77;;;26.60;40.60;;;;;;6187741;23;20009;-78
2023/10/17 12:20:41;;;;;;;1.75;0.70;;;26.50;41.00;;;;;;6214572;23;20005;-77
2023/10/17 12:23:11;;;;;;;2.60;0.77;;;26.50;40.90;;;;;;6214827;23;20004;-78
2023/10/17 12:25:41;;;;;;;0.93;0.70;;;26.40;41.10;;;;;;6214880;23;20012;-77
2023/10/17 12:28:06;;;;;;;;;;;26.20;41.00;;;;;;6215211;23;20031;-78
2023/10/17 12:30:41;;;;;;;2.75;0.90;;;26.10;40.50;;;;;;6215021;23;20369;-78
2023/10/17 12:33:08;;;;;;;4.57;0.75;;;26.10;40.80;;;;;;6215201;23;20427;-78
2023/10/17 12:35:34;;;;;;;3.28;1.33;;;26.10;41.30;;;;;;6214878;23;20441;-78
2023/10/17 12:38:14;;;;;;;3.03;1.25;;;26.20;41.10;;;;;;6214830;23;20009;-78
2023/10/17 12:40:42;;;;;;;1.60;0.80;;;26.30;41.10;;;;;;6214775;23;20004;-77
2023/10/17 12:43:11;;;;;;;1.25;0.73;;;26.30;40.80;;;;;;6214666;23;20123;-77
2023/10/17 12:45:38;;;;;;;2.33;1.20;;;26.30;40.70;;;;;;6189552;23;20004;-78
2023/10/17 12:48:05;;;;;;;3.75;0.82;;;26.30;40.60;;;;;;6189673;23;20008;-78
2023/10/17 12:50:33;;;;;;;2.13;0.90;;;26.20;40.60;;;;;;6216763;23;20445;-78
2023/10/17 12:52:59;;;;;;;1.25;0.90;;;26.20;40.60;;;;;;6216685;23;20004;-78
2023/10/17 12:55:25;;;;;;;4.65;0.93;;;25.90;40.40;;;;;;6216074;23;19997;-78
2023/10/17 12:57:51;;;;;;;8.10;0.95;;;25.40;40.50;;;;;;6215328;23;20474;-77
2023/10/17 13:00:25;;;;;;;4.65;1.00;;;25.00;40.90;;;;;;6210244;23;20005;-77
2023/10/17 13:02:52;;;;;;;1.45;1.00;;;24.60;41.60;;;;;;6216857;23;20002;-77
2023/10/17 13:05:20;;;;;;;1.45;0.85;;;24.20;41.80;;;;;;6191185;23;20023;-76
2023/10/17 13:07:46;;;;;;;2.58;1.15;;;23.90;42.20;;;;;;6216028;23;20055;-76
2023/10/17 13:10:12;;;;;;;2.17;0.82;;;23.70;42.60;;;;;;6215742;23;20004;-77
2023/10/17 13:12:39;;;;;;;2.80;1.10;;;23.40;43.10;;;;;;6216445;23;20072;-77
2023/10/17 13:15:08;;;;;;;0.68;0.60;;;23.20;43.30;;;;;;6217077;23;20071;-77
2023/10/17 13:17:34;;;;;;;1.85;0.90;;;23.10;43.60;;;;;;6216828;23;20011;-76
2023/10/17 13:20:07;;;;;;;3.33;1.95;;;22.90;43.90;;;;;;6216819;23;20004;-83
2023/10/17 13:22:46;;;;;;;5.50;1.40;;;22.70;44.70;;;;;;6217050;23;20000;-76
2023/10/17 13:25:18;;;;;;;2.67;1.08;;;22.60;45.90;;;;;;6216754;23;20004;-75
2023/10/17 13:27:45;;;;;;;3.65;1.00;;;22.50;44.90;;;;;;6215658;23;20000;-77
2023/10/17 13:30:11;;;;;;;2.53;1.20;;;22.40;45.20;;;;;;6186362;23;20342;-76
2023/10/17 13:32:36;;;;;;;1.73;0.90;;;22.20;45.60;;;;;;6212878;23;20001;-76
2023/10/17 13:35:03;;;;;;;2.95;1.25;;;22.10;45.80;;;;;;6212311;23;20383;-76
2023/10/17 13:37:29;;;;;;;3.85;1.20;;;22.10;46.20;;;;;;6211313;23;20054;-76
2023/10/17 13:39:57;;;;;;;2.38;1.20;;;22.00;45.90;;;;;;6211907;23;20040;-77
2023/10/17 13:42:23;;;;;;;4.88;0.93;;;21.90;45.70;;;;;;6212506;23;20117;-76
2023/10/17 13:44:49;;;;;;;2.47;1.27;;;21.80;45.70;;;;;;6212550;23;20339;-76
2023/10/17 13:47:16;;;;;;;2.00;0.95;;;21.80;45.80;;;;;;6182619;23;20099;-77
2023/10/17 13:49:42;;;;;;;2.00;1.20;;;21.70;46.00;;;;;;6212721;23;20008;-76
2023/10/17 13:52:09;;;;;;;1.65;1.13;;;21.60;46.20;;;;;;6212404;23;20048;-76
2023/10/17 13:54:37;;;;;;;3.72;1.48;;;21.50;46.20;;;;;;6212825;23;20030;-76
2023/10/17 13:57:06;;;;;;;3.42;1.10;;;21.40;46.50;;;;;;6212261;23;20001;-77
2023/10/17 13:59:39;;;;;;;1.02;0.88;;;21.30;46.30;;;;;;6212528;23;20039;-76
2023/10/17 14:02:06;;;;;;;1.98;1.08;;;21.10;46.70;;;;;;6212944;23;20315;-76
2023/10/17 14:04:32;;;;;;;2.53;1.40;;;21.10;47.00;;;;;;6213181;23;20012;-77
2023/10/17 14:06:58;;;;;;;1.02;0.82;;;21.00;47.30;;;;;;6212887;23;20056;-77
2023/10/17 14:09:24;;;;;;;4.28;1.10;;;21.00;47.50;;;;;;6212824;23;20032;-77
2023/10/17 14:11:53;;;;;;;2.40;1.00;;;21.00;47.60;;;;;;6212495;23;20419;-77
2023/10/17 14:14:21;;;;;;;2.30;1.23;;;20.90;47.80;;;;;;6213140;23;20308;-77
2023/10/17 14:16:50;;;;;;;1.00;0.82;;;20.90;47.60;;;;;;6212547;23;20004;-77
2023/10/17 14:19:36;;;;;;;2.85;0.82;;;20.90;47.80;;;;;;6214173;23;20004;-76
2023/10/17 14:25:00;;;;;;;6.22;1.02;;;20.80;48.00;;;;;;6217062;23;20008;-77
2023/10/17 14:27:29;;;;;;;2.03;0.82;;;20.80;47.80;;;;;;6188177;23;20008;-77
2023/10/17 14:29:59;;;;;;;2.15;0.95;;;20.70;48.50;;;;;;6215458;23;20001;-77
2023/10/17 14:32:28;;;;;;;3.78;0.95;;;20.50;48.40;;;;;;6215018;23;20069;-74
2023/10/17 14:34:54;;;;;;;1.35;0.90;;;20.50;48.60;;;;;;6215534;23;20000;-75
2023/10/17 14:37:21;;;;;;;2.30;1.17;;;20.50;49.20;;;;;;6215957;23;20382;-75
2023/10/17 14:39:48;;;;;;;2.95;1.10;;;20.40;48.90;;;;;;6189319;23;20011;-82
2023/10/17 14:42:14;;;;;;;2.67;1.13;;;20.30;49.10;;;;;;6216105;23;20024;-83
2023/10/17 14:44:45;;;;;;;3.42;1.00;;;20.30;49.00;;;;;;6215508;23;20366;-82
2023/10/17 14:47:17;;;;;;;1.35;0.80;;;20.20;49.10;;;;;;6214966;23;20005;-82
2023/10/17 14:49:46;;;;;;;2.92;1.33;;;20.20;49.20;;;;;;6188525;23;20005;-82
2023/10/17 14:52:13;;;;;;;1.77;0.70;;;20.20;49.20;;;;;;6215872;23;20003;-82
2023/10/17 14:54:40;;;;;;;2.60;0.93;;;20.20;49.50;;;;;;6215872;23;20423;-82
2023/10/17 14:57:09;;;;;;;2.78;1.00;;;20.20;49.40;;;;;;6215825;23;19997;-82
2023/10/17 14:59:38;;;;;;;0.80;0.70;;;20.10;49.50;;;;;;6187786;23;20016;-82
2023/10/17 15:02:05;;;;;;;1.55;1.00;;;20.10;49.00;;;;;;6215999;23;20054;-82
2023/10/17 15:04:31;;;;;;;5.03;1.33;;;20.10;49.20;;;;;;6189491;23;20012;-82
2023/10/17 15:06:58;;;;;;;2.75;1.10;;;20.10;49.30;;;;;;6216077;23;20001;-82
2023/10/17 15:09:26;;;;;;;1.30;1.02;;;20.10;49.30;;;;;;6215845;23;20076;-81
2023/10/17 15:11:53;;;;;;;1.60;1.10;;;20.00;49.30;;;;;;6189835;23;20055;-82
2023/10/17 15:14:22;;;;;;;1.35;0.90;;;19.90;49.80;;;;;;6216395;23;20001;-82
2023/10/17 15:16:47;;;;;;;2.05;0.77;;;19.90;50.10;;;;;;6215766;23;20375;-81
2023/10/17 15:19:13;;;;;;;1.90;0.65;;;19.80;50.30;;;;;;6215175;23;20001;-82